createdAt,value
2018-12-17T00:00:40.478Z,17.10
2018-12-17T00:03:09.296Z,16.37
2018-12-17T00:05:41.702Z,15.13
2018-12-17T00:08:09.071Z,16.13
2018-12-17T00:10:37.762Z,16.50
2018-12-17T00:13:06.437Z,15.63
2018-12-17T00:15:35.090Z,17.50
2018-12-17T00:18:03.757Z,17.67
2018-12-17T00:20:32.525Z,16.37
2018-12-17T00:23:01.261Z,18.57
2018-12-17T00:25:30.046Z,17.53
2018-12-17T00:27:58.625Z,16.67
2018-12-17T00:30:27.291Z,16.13
2018-12-17T00:32:55.956Z,16.47
2018-12-17T00:35:24.602Z,15.70
2018-12-17T00:37:53.204Z,17.10
2018-12-17T00:40:21.942Z,14.80
2018-12-17T00:42:50.614Z,16.23
2018-12-17T00:45:19.336Z,16.47
2018-12-17T00:47:47.995Z,16.17
2018-12-17T00:50:16.641Z,16.30
2018-12-17T00:52:45.282Z,16.20
2018-12-17T00:55:13.951Z,16.17
2018-12-17T00:57:42.625Z,14.80
2018-12-17T01:00:11.425Z,16.20
2018-12-17T01:02:40.007Z,16.03
2018-12-17T01:05:09.028Z,16.70
2018-12-17T01:07:37.660Z,14.70
2018-12-17T01:10:11.336Z,15.90
2018-12-17T01:12:39.963Z,15.93
2018-12-17T01:15:09.018Z,15.37
2018-12-17T01:17:37.693Z,14.67
2018-12-17T01:20:07.494Z,15.00
2018-12-17T01:22:36.117Z,14.83
2018-12-17T01:25:05.224Z,15.50
2018-12-17T01:27:33.883Z,13.17
2018-12-17T01:30:02.519Z,15.97
2018-12-17T01:32:31.414Z,15.17
2018-12-17T01:35:00.047Z,14.80
2018-12-17T01:37:28.799Z,15.13
2018-12-17T01:39:57.490Z,16.07
2018-12-17T01:42:26.167Z,15.40
2018-12-17T01:44:54.791Z,15.10
2018-12-17T01:47:23.430Z,15.57
2018-12-17T01:49:52.063Z,14.73
2018-12-17T01:52:20.722Z,16.50
2018-12-17T01:54:49.415Z,15.57
2018-12-17T01:57:18.102Z,16.13
2018-12-17T01:59:46.755Z,16.07
2018-12-17T02:02:15.388Z,15.80
2018-12-17T02:04:44.046Z,15.50
2018-12-17T02:07:12.824Z,15.20
2018-12-17T02:09:41.473Z,15.80
2018-12-17T02:12:10.131Z,15.33
2018-12-17T02:14:38.749Z,15.10
2018-12-17T02:17:07.382Z,15.60
2018-12-17T02:19:36.379Z,15.13
2018-12-17T02:22:05.063Z,15.73
2018-12-17T02:24:33.682Z,14.50
2018-12-17T02:27:02.339Z,15.63
2018-12-17T02:29:31.153Z,15.67
2018-12-17T02:31:59.787Z,16.03
2018-12-17T02:34:28.626Z,14.50
2018-12-17T02:36:57.274Z,15.33
2018-12-17T02:39:25.905Z,14.57
2018-12-17T02:41:54.530Z,15.57
2018-12-17T02:44:23.214Z,15.50
2018-12-17T02:46:51.996Z,14.30
2018-12-17T02:49:21.060Z,14.33
2018-12-17T02:51:49.799Z,15.47
2018-12-17T02:54:18.483Z,14.33
2018-12-17T02:56:47.125Z,13.93
2018-12-17T02:59:15.858Z,14.37
2018-12-17T03:01:44.518Z,15.70
2018-12-17T03:04:13.111Z,13.77
2018-12-17T03:06:41.779Z,14.27
2018-12-17T03:09:10.370Z,14.43
2018-12-17T03:11:38.968Z,15.30
2018-12-17T03:14:07.629Z,14.83
2018-12-17T03:16:36.276Z,14.73
2018-12-17T03:19:04.969Z,13.57
2018-12-17T03:21:33.650Z,13.60
2018-12-17T03:24:02.547Z,13.30
2018-12-17T03:26:31.134Z,12.93
2018-12-17T03:28:59.794Z,14.07
2018-12-17T03:31:28.619Z,14.47
2018-12-17T03:33:57.215Z,13.03
2018-12-17T03:36:25.897Z,13.23
2018-12-17T03:38:54.473Z,14.43
2018-12-17T03:41:23.134Z,13.83
2018-12-17T03:43:51.809Z,14.00
2018-12-17T03:46:20.470Z,12.77
2018-12-17T03:48:49.117Z,12.30
2018-12-17T03:51:17.763Z,14.63
2018-12-17T03:53:46.395Z,13.67
2018-12-17T03:56:15.022Z,15.20
2018-12-17T03:58:43.680Z,13.70
2018-12-17T04:01:12.277Z,14.27
2018-12-17T04:03:40.889Z,13.93
2018-12-17T04:06:09.575Z,13.47
2018-12-17T04:08:38.215Z,12.90
2018-12-17T04:11:06.919Z,14.67
2018-12-17T04:13:35.581Z,13.70
2018-12-17T04:16:04.297Z,13.57
2018-12-17T04:18:33.205Z,13.50
2018-12-17T04:21:01.893Z,13.33
2018-12-17T04:23:30.510Z,12.47
2018-12-17T04:25:59.189Z,13.17
2018-12-17T04:28:27.857Z,13.23
2018-12-17T04:30:56.475Z,12.60
2018-12-17T04:33:25.084Z,13.57
2018-12-17T04:35:53.800Z,12.57
2018-12-17T04:38:22.538Z,11.77
2018-12-17T04:40:51.194Z,12.67
2018-12-17T04:43:19.817Z,12.47
2018-12-17T04:45:48.447Z,12.73
2018-12-17T04:48:17.099Z,12.40
2018-12-17T04:50:45.902Z,11.17
2018-12-17T04:53:14.530Z,13.83
2018-12-17T04:55:43.133Z,12.13
2018-12-17T04:58:11.838Z,13.63
2018-12-17T05:00:40.456Z,14.27
2018-12-17T05:03:09.041Z,13.90
2018-12-17T05:05:37.741Z,14.33
2018-12-17T05:08:06.396Z,13.10
2018-12-17T05:10:34.996Z,12.77
2018-12-17T05:13:03.846Z,12.33
2018-12-17T05:15:32.542Z,13.03
2018-12-17T05:18:01.146Z,14.33
2018-12-17T05:20:29.839Z,14.30
2018-12-17T05:22:58.457Z,13.80
2018-12-17T05:25:27.077Z,13.80
2018-12-17T05:27:55.791Z,13.77
2018-12-17T05:30:24.446Z,14.47
2018-12-17T05:32:53.086Z,14.43
2018-12-17T05:35:21.809Z,15.20
2018-12-17T05:37:50.467Z,13.83
2018-12-17T05:40:19.171Z,14.53
2018-12-17T05:42:47.885Z,15.53
2018-12-17T05:45:16.513Z,14.93
2018-12-17T05:47:45.192Z,15.23
2018-12-17T05:50:13.837Z,14.77
2018-12-17T05:52:42.544Z,14.27
2018-12-17T05:55:11.176Z,15.23
2018-12-17T05:57:39.885Z,14.00
2018-12-17T06:00:08.873Z,14.30
2018-12-17T06:02:37.512Z,15.80
2018-12-17T06:05:07.004Z,14.07
2018-12-17T06:07:35.650Z,15.80
2018-12-17T06:10:05.486Z,15.17
2018-12-17T06:12:34.203Z,14.60
2018-12-17T06:15:02.839Z,15.80
2018-12-17T06:17:31.507Z,16.00
2018-12-17T06:20:00.188Z,13.77
2018-12-17T06:22:28.885Z,15.60
2018-12-17T06:24:57.540Z,14.83
2018-12-17T06:27:26.264Z,15.40
2018-12-17T06:29:54.904Z,17.03
2018-12-17T06:32:23.587Z,14.83
2018-12-17T06:34:52.246Z,15.73
2018-12-17T06:37:20.850Z,13.77
2018-12-17T06:39:49.467Z,14.40
2018-12-17T06:42:18.268Z,15.53
2018-12-17T06:44:46.953Z,15.47
2018-12-17T06:47:15.648Z,15.57
2018-12-17T06:49:44.368Z,15.43
2018-12-17T06:52:13.007Z,15.83
2018-12-17T06:54:41.809Z,15.47
2018-12-17T06:57:10.445Z,15.57
2018-12-17T06:59:45.745Z,15.93
2018-12-17T07:02:14.793Z,16.60
2018-12-17T07:04:43.420Z,16.43
2018-12-17T07:07:12.060Z,16.37
2018-12-17T07:09:40.735Z,16.43
2018-12-17T07:12:09.380Z,17.90
2018-12-17T07:14:38.047Z,16.20
2018-12-17T07:17:06.767Z,15.77
2018-12-17T07:19:35.393Z,16.70
2018-12-17T07:22:04.010Z,15.93
2018-12-17T07:24:32.791Z,17.53
2018-12-17T07:27:01.471Z,18.50
2018-12-17T07:29:30.233Z,15.87
2018-12-17T07:31:58.889Z,15.40
2018-12-17T07:34:28.162Z,16.30
2018-12-17T07:36:57.159Z,16.87
2018-12-17T07:39:26.631Z,15.83
2018-12-17T07:41:55.293Z,16.50
2018-12-17T07:44:23.974Z,16.80
2018-12-17T07:46:52.603Z,16.73
2018-12-17T07:49:21.250Z,15.10
2018-12-17T07:51:50.325Z,17.13
2018-12-17T07:54:18.955Z,15.97
2018-12-17T07:56:47.622Z,15.73
2018-12-17T07:59:16.333Z,16.27
2018-12-17T08:01:45.036Z,16.37
2018-12-17T08:04:13.744Z,16.33
2018-12-17T08:06:42.478Z,16.77
2018-12-17T08:09:11.236Z,16.73
2018-12-17T08:11:39.949Z,17.50
2018-12-17T08:14:08.930Z,17.67
2018-12-17T08:16:37.676Z,14.37
2018-12-17T08:19:06.417Z,17.70
2018-12-17T08:21:35.131Z,17.80
2018-12-17T08:24:04.028Z,15.97
2018-12-17T08:26:32.716Z,17.70
2018-12-17T08:29:01.360Z,17.33
2018-12-17T08:31:30.022Z,16.20
2018-12-17T08:33:58.654Z,16.90
2018-12-17T08:36:27.351Z,15.23
2018-12-17T08:38:56.045Z,15.57
2018-12-17T08:41:24.736Z,16.77
2018-12-17T08:43:53.531Z,15.70
2018-12-17T08:46:22.224Z,16.20
2018-12-17T08:48:50.929Z,15.63
2018-12-17T08:51:19.671Z,14.97
2018-12-17T08:53:49.353Z,15.57
2018-12-17T08:56:19.862Z,16.30
2018-12-17T08:58:50.522Z,16.17
2018-12-17T09:01:19.208Z,16.10
2018-12-17T09:03:50.478Z,15.33
2018-12-17T09:06:20.579Z,16.00
2018-12-17T09:08:53.230Z,16.27
2018-12-17T09:11:25.482Z,16.40
2018-12-17T09:13:55.868Z,16.27
2018-12-17T09:16:25.157Z,16.27
2018-12-17T09:18:54.155Z,15.00
2018-12-17T09:21:24.836Z,19.90
2018-12-17T09:23:54.909Z,18.63
2018-12-17T09:26:27.534Z,19.73
2018-12-17T09:28:56.313Z,19.43
2018-12-17T09:31:27.694Z,18.33
2018-12-17T09:33:59.688Z,19.20
2018-12-17T09:36:32.103Z,17.43
2018-12-17T09:39:03.491Z,18.60
2018-12-17T09:41:35.772Z,16.93
2018-12-17T09:44:07.809Z,18.13
2018-12-17T09:46:39.487Z,15.57
2018-12-17T09:49:11.872Z,17.73
2018-12-17T09:51:42.664Z,17.10
2018-12-17T09:54:14.242Z,15.70
2018-12-17T09:56:43.984Z,15.30
2018-12-17T09:59:13.699Z,17.60
2018-12-17T10:01:49.162Z,16.47
2018-12-17T10:04:17.893Z,15.20
2018-12-17T10:06:46.663Z,15.63
2018-12-17T10:09:15.556Z,15.63
2018-12-17T10:11:44.380Z,17.17
2018-12-17T10:14:13.102Z,14.30
2018-12-17T10:16:41.874Z,15.23
2018-12-17T10:19:10.618Z,15.80
2018-12-17T10:21:39.373Z,15.60
2018-12-17T10:24:08.288Z,16.60
2018-12-17T10:26:36.972Z,14.43
2018-12-17T10:29:05.769Z,15.93
2018-12-17T10:31:34.430Z,15.93
2018-12-17T10:34:03.114Z,16.17
2018-12-17T10:36:31.796Z,16.37
2018-12-17T10:39:00.677Z,15.77
2018-12-17T10:41:29.376Z,14.47
2018-12-17T10:43:58.067Z,15.83
2018-12-17T10:46:27.023Z,15.70
2018-12-17T10:48:55.738Z,14.97
2018-12-17T10:51:24.467Z,14.53
2018-12-17T10:53:53.096Z,13.93
2018-12-17T10:56:21.862Z,14.70
2018-12-17T10:58:50.641Z,14.57
2018-12-17T11:01:24.516Z,13.50
2018-12-17T11:03:58.263Z,13.93
2018-12-17T11:06:27.392Z,14.90
2018-12-17T11:08:56.149Z,12.90
2018-12-17T11:11:24.814Z,14.87
2018-12-17T11:13:53.483Z,15.10
2018-12-17T11:16:22.168Z,13.87
2018-12-17T11:18:50.861Z,14.03
2018-12-17T11:21:19.596Z,13.47
2018-12-17T11:23:48.267Z,14.63
2018-12-17T11:26:17.009Z,13.23
2018-12-17T11:28:45.741Z,12.53
2018-12-17T11:31:14.381Z,13.07
2018-12-17T11:33:43.065Z,12.03
2018-12-17T11:36:11.769Z,13.60
2018-12-17T11:38:40.420Z,13.10
2018-12-17T11:41:09.096Z,12.23
2018-12-17T11:43:43.660Z,12.53
2018-12-17T11:46:10.569Z,11.80
2018-12-17T11:48:40.272Z,12.77
2018-12-17T11:51:08.943Z,11.17
2018-12-17T11:53:37.780Z,11.80
2018-12-17T11:56:06.484Z,11.90
2018-12-17T11:58:35.146Z,10.97
2018-12-17T12:01:06.181Z,12.03
2018-12-17T12:03:38.073Z,11.10
2018-12-17T12:06:13.698Z,11.50
2018-12-17T12:08:37.570Z,11.03
2018-12-17T12:11:06.331Z,10.83
2018-12-17T12:13:35.005Z,11.00
2018-12-17T12:16:03.676Z,11.67
2018-12-17T12:18:32.508Z,10.93
2018-12-17T12:21:01.202Z,10.43
2018-12-17T12:23:30.085Z,10.83
2018-12-17T12:25:58.743Z,10.90
2018-12-17T12:28:27.465Z,10.73
2018-12-17T12:31:00.435Z,10.17
2018-12-17T12:33:26.847Z,11.53
2018-12-17T12:35:55.493Z,10.90
2018-12-17T12:38:24.135Z,10.27
2018-12-17T12:40:52.797Z,10.23
2018-12-17T12:43:21.488Z,10.67
2018-12-17T12:45:50.140Z,9.63
2018-12-17T12:48:18.831Z,10.77
2018-12-17T12:50:47.483Z,9.80
2018-12-17T12:53:16.180Z,10.23
2018-12-17T12:55:44.918Z,10.40
2018-12-17T12:58:13.626Z,10.40
2018-12-17T13:00:42.326Z,10.10
2018-12-17T13:03:11.051Z,10.77
2018-12-17T13:05:39.800Z,10.13
2018-12-17T13:08:08.499Z,10.17
2018-12-17T13:10:37.699Z,9.93
2018-12-17T13:13:06.585Z,10.70
2018-12-17T13:15:35.247Z,9.80
2018-12-17T13:18:04.008Z,9.10
2018-12-17T13:20:32.737Z,9.87
2018-12-17T13:23:01.428Z,9.50
2018-12-17T13:25:34.835Z,9.63
2018-12-17T13:28:03.742Z,9.53
2018-12-17T13:30:32.489Z,10.13
2018-12-17T13:33:01.151Z,10.67
2018-12-17T13:35:29.867Z,10.70
2018-12-17T13:37:58.519Z,10.60
2018-12-17T13:40:27.286Z,10.23
2018-12-17T13:42:55.990Z,10.30
2018-12-17T13:45:24.728Z,10.20
2018-12-17T13:47:53.471Z,10.40
2018-12-17T13:50:30.160Z,10.70
2018-12-17T13:53:34.040Z,10.53
2018-12-17T13:56:02.883Z,10.67
2018-12-17T13:58:31.565Z,10.33
2018-12-17T14:01:00.228Z,11.07
2018-12-17T14:03:28.949Z,10.57
2018-12-17T14:05:57.668Z,10.57
2018-12-17T14:08:26.327Z,10.27
2018-12-17T14:10:55.111Z,11.50
2018-12-17T14:13:23.951Z,10.17
2018-12-17T14:15:55.370Z,11.00
2018-12-17T14:18:29.355Z,11.40
2018-12-17T14:21:03.320Z,10.50
2018-12-17T14:23:32.102Z,10.50
2018-12-17T14:26:00.774Z,11.30
2018-12-17T14:28:30.115Z,9.53
2018-12-17T14:30:58.764Z,10.57
2018-12-17T14:33:27.525Z,11.17
2018-12-17T14:36:01.291Z,11.03
2018-12-17T14:38:29.992Z,10.60
2018-12-17T14:40:58.628Z,10.77
2018-12-17T14:43:27.450Z,11.83
2018-12-17T14:45:56.141Z,9.87
2018-12-17T14:48:24.821Z,11.43
2018-12-17T14:50:53.557Z,12.20
2018-12-17T14:53:22.222Z,13.00
2018-12-17T14:55:50.913Z,11.50
2018-12-17T14:58:19.603Z,12.13
2018-12-17T15:00:48.280Z,10.97
2018-12-17T15:03:16.985Z,12.27
2018-12-17T15:05:45.691Z,11.70
2018-12-17T15:08:14.341Z,11.40
2018-12-17T15:10:43.091Z,12.33
2018-12-17T15:13:11.786Z,11.83
2018-12-17T15:15:40.486Z,11.83
2018-12-17T15:18:09.159Z,11.83
2018-12-17T15:20:37.921Z,12.03
2018-12-17T15:23:06.612Z,12.27
2018-12-17T15:25:35.304Z,13.20
2018-12-17T15:28:04.067Z,16.67
2018-12-17T15:30:32.799Z,17.07
2018-12-17T15:33:01.566Z,14.53
2018-12-17T15:35:30.270Z,13.93
2018-12-17T15:37:58.983Z,13.80
2018-12-17T15:40:27.721Z,13.17
2018-12-17T15:42:56.460Z,13.83
2018-12-17T15:45:25.093Z,13.50
2018-12-17T15:47:53.745Z,14.33
2018-12-17T15:50:22.557Z,14.40
2018-12-17T15:52:51.282Z,13.53
2018-12-17T15:55:19.913Z,14.30
2018-12-17T15:57:48.788Z,13.97
2018-12-17T16:00:17.509Z,15.83
2018-12-17T16:02:46.238Z,15.00
2018-12-17T16:05:14.951Z,13.90
2018-12-17T16:07:43.673Z,15.23
2018-12-17T16:10:12.389Z,14.10
2018-12-17T16:12:41.115Z,13.87
2018-12-17T16:15:09.994Z,15.20
2018-12-17T16:17:38.712Z,15.20
2018-12-17T16:20:08.934Z,15.23
2018-12-17T16:22:37.855Z,16.03
2018-12-17T16:25:07.023Z,15.67
2018-12-17T16:27:35.793Z,15.63
2018-12-17T16:30:05.335Z,14.27
2018-12-17T16:32:34.221Z,15.60
2018-12-17T16:35:02.986Z,15.13
2018-12-17T16:37:31.897Z,13.53
2018-12-17T16:40:00.896Z,14.73
2018-12-17T16:42:29.592Z,14.30
2018-12-17T16:44:58.260Z,14.33
2018-12-17T16:47:26.979Z,14.23
2018-12-17T16:49:55.714Z,13.70
2018-12-17T16:52:24.427Z,13.47
2018-12-17T16:54:53.092Z,12.97
2018-12-17T16:57:21.779Z,13.23
2018-12-17T16:59:50.564Z,12.53
2018-12-17T17:02:19.193Z,11.90
2018-12-17T17:04:48.848Z,12.53
2018-12-17T17:07:17.532Z,12.90
2018-12-17T17:09:46.170Z,12.50
2018-12-17T17:12:15.041Z,12.23
2018-12-17T17:14:43.704Z,11.90
2018-12-17T17:17:12.479Z,11.87
2018-12-17T17:19:41.224Z,10.80
2018-12-17T17:22:10.216Z,11.37
2018-12-17T17:24:38.896Z,11.40
2018-12-17T17:27:07.610Z,11.10
2018-12-17T17:29:36.313Z,10.67
2018-12-17T17:32:11.445Z,10.57
2018-12-17T17:34:35.743Z,10.97
2018-12-17T17:37:04.564Z,11.10
2018-12-17T17:39:33.236Z,9.97
2018-12-17T17:42:01.920Z,11.13
2018-12-17T17:44:30.620Z,11.40
2018-12-17T17:46:59.298Z,10.47
2018-12-17T17:49:27.989Z,11.93
2018-12-17T17:51:56.788Z,10.20
2018-12-17T17:54:29.069Z,10.23
2018-12-17T17:56:59.760Z,9.00
2018-12-17T17:59:29.418Z,10.20
2018-12-17T18:01:58.543Z,10.37
2018-12-17T18:04:27.566Z,10.60
2018-12-17T18:06:56.366Z,9.90
2018-12-17T18:09:25.418Z,11.33
2018-12-17T18:11:55.811Z,10.37
2018-12-17T18:14:25.115Z,9.97
2018-12-17T18:16:53.807Z,9.90
2018-12-17T18:19:25.480Z,10.10
2018-12-17T18:21:54.270Z,9.80
2018-12-17T18:24:34.717Z,10.00
2018-12-17T18:27:12.302Z,9.17
2018-12-17T18:29:42.883Z,8.30
2018-12-17T18:32:11.615Z,9.03
2018-12-17T18:34:41.336Z,8.77
2018-12-17T18:37:11.469Z,8.17
2018-12-17T18:39:40.292Z,9.33
2018-12-17T18:42:10.413Z,9.10
2018-12-17T18:44:45.435Z,8.03
2018-12-17T18:47:14.210Z,7.20
2018-12-17T18:49:46.538Z,8.73
2018-12-17T18:52:17.305Z,7.83
2018-12-17T18:54:49.111Z,8.43
2018-12-17T18:57:20.029Z,8.03
2018-12-17T18:59:49.810Z,7.83
2018-12-17T19:02:21.109Z,7.27
2018-12-17T19:04:51.186Z,7.30
2018-12-17T19:07:20.424Z,8.30
2018-12-17T19:09:49.789Z,7.63
2018-12-17T19:12:18.479Z,8.03
2018-12-17T19:14:47.158Z,8.70
2018-12-17T19:17:15.893Z,7.37
2018-12-17T19:19:47.435Z,8.37
2018-12-17T19:22:18.656Z,8.53
2018-12-17T19:24:50.198Z,8.93
2018-12-17T19:27:19.339Z,9.10
2018-12-17T19:29:50.514Z,8.33
2018-12-17T19:32:19.295Z,8.37
2018-12-17T19:34:49.167Z,8.67
2018-12-17T19:37:20.609Z,8.60
2018-12-17T19:39:49.376Z,8.17
2018-12-17T19:42:18.265Z,7.53
2018-12-17T19:44:50.937Z,8.33
2018-12-17T19:47:20.088Z,8.53
2018-12-17T19:49:48.853Z,7.37
2018-12-17T19:52:18.564Z,7.80
2018-12-17T19:54:47.302Z,8.13
2018-12-17T19:57:17.289Z,8.70
2018-12-17T19:59:46.022Z,9.07
2018-12-17T20:02:20.704Z,7.33
2018-12-17T20:04:56.583Z,8.57
2018-12-17T20:07:32.474Z,8.23
2018-12-17T20:10:17.409Z,8.97
2018-12-17T20:12:50.220Z,7.43
2018-12-17T20:18:47.939Z,7.60
2018-12-17T20:21:17.449Z,8.30
2018-12-17T20:23:56.504Z,7.60
2018-12-17T20:26:35.622Z,7.67
2018-12-17T20:29:07.281Z,7.80
2018-12-17T20:31:42.915Z,8.87
2018-12-17T20:34:17.240Z,7.90
2018-12-17T20:36:50.451Z,8.00
2018-12-17T20:41:58.885Z,7.40
2018-12-17T20:44:29.393Z,8.27
2018-12-17T20:47:01.377Z,7.43
2018-12-17T20:49:30.244Z,7.47
2018-12-17T20:52:00.627Z,8.17
2018-12-17T20:54:31.200Z,7.50
2018-12-17T20:56:59.922Z,7.57
2018-12-17T20:59:28.663Z,6.47
2018-12-17T21:01:57.393Z,6.77
2018-12-17T21:04:26.148Z,7.60
2018-12-17T21:06:54.859Z,7.70
2018-12-17T21:09:23.666Z,7.23
2018-12-17T21:11:52.894Z,6.70
2018-12-17T21:14:23.859Z,8.23
2018-12-17T21:16:52.420Z,8.13
2018-12-17T21:19:21.116Z,7.53
2018-12-17T21:21:49.776Z,8.20
2018-12-17T21:24:18.494Z,8.13
2018-12-17T21:26:47.161Z,8.03
2018-12-17T21:29:15.835Z,8.13
2018-12-17T21:31:44.541Z,7.10
2018-12-17T21:34:13.366Z,7.00
2018-12-17T21:36:42.268Z,7.77
2018-12-17T21:39:10.923Z,8.37
2018-12-17T21:41:39.637Z,7.97
2018-12-17T21:44:08.343Z,7.50
2018-12-17T21:46:37.159Z,7.57
2018-12-17T21:49:05.889Z,8.23
2018-12-17T21:51:34.700Z,8.13
2018-12-17T21:54:03.410Z,7.20
2018-12-17T21:56:32.193Z,7.03
2018-12-17T21:59:00.867Z,7.67
2018-12-17T22:01:29.612Z,6.60
2018-12-17T22:03:58.306Z,7.53
2018-12-17T22:06:26.986Z,7.17
2018-12-17T22:08:55.600Z,7.70
2018-12-17T22:11:24.314Z,8.63
2018-12-17T22:13:53.023Z,8.37
2018-12-17T22:16:21.673Z,7.80
2018-12-17T22:18:50.396Z,8.93
2018-12-17T22:21:19.082Z,9.67
2018-12-17T22:23:47.735Z,10.57
2018-12-17T22:26:16.412Z,10.17
2018-12-17T22:28:45.050Z,9.80
2018-12-17T22:31:13.817Z,10.67
2018-12-17T22:33:42.526Z,11.20
2018-12-17T22:36:11.135Z,10.90
2018-12-17T22:38:39.839Z,11.00
2018-12-17T22:41:08.502Z,10.83
2018-12-17T22:43:37.121Z,10.97
2018-12-17T22:46:05.809Z,12.00
2018-12-17T22:48:35.162Z,11.97
2018-12-17T22:51:04.067Z,11.10
2018-12-17T22:53:32.755Z,11.43
2018-12-17T22:56:01.662Z,10.53
2018-12-17T22:58:30.276Z,11.53
2018-12-17T23:00:59.039Z,11.67
2018-12-17T23:03:27.779Z,11.20
2018-12-17T23:05:56.427Z,11.30
2018-12-17T23:08:25.083Z,11.03
2018-12-17T23:11:04.849Z,10.07
2018-12-17T23:13:44.628Z,11.10
2018-12-17T23:16:24.602Z,10.37
2018-12-17T23:18:52.139Z,11.23
2018-12-17T23:21:20.814Z,12.23
2018-12-17T23:23:49.614Z,11.53
2018-12-17T23:26:18.250Z,11.27
2018-12-17T23:28:47.043Z,11.17
2018-12-17T23:31:15.731Z,11.33
2018-12-17T23:33:44.492Z,11.77
2018-12-17T23:36:13.189Z,11.03
2018-12-17T23:38:41.819Z,11.17
2018-12-17T23:41:10.520Z,10.83
2018-12-17T23:43:39.338Z,11.40
2018-12-17T23:46:08.131Z,11.13
2018-12-17T23:48:36.795Z,10.90
2018-12-17T23:51:05.464Z,12.40
2018-12-17T23:53:34.173Z,11.27
2018-12-17T23:56:02.755Z,11.70
2018-12-17T23:58:31.404Z,13.17
